Time;durP1;ratioP1;P1;durP2;ratioP2;P2;SDS_P1;SDS_P2;PMS_P1;PMS_P2;Temp;Humidity;BMP_temperature;BMP_pressure;BME280_temperature;BME280_humidity;BME280_pressure;Samples;Min_cycle;Max_cycle;Signal;HPM_P1;HPM_P2
2022/06/19 00:00:25;;;;;;;16.60;6.57;;;22.30;99.90;;;;;;7337388;32;20599;-63
2022/06/19 00:04:27;;;;;;;11.27;6.82;;;22.10;99.90;;;;;;7341432;32;20175;-62
2022/06/19 00:08:30;;;;;;;14.20;6.20;;;22.10;99.90;;;;;;7340581;32;20158;-61
2022/06/19 00:12:32;;;;;;;17.23;6.80;;;22.00;99.90;;;;;;7339237;32;20211;-62
2022/06/19 00:16:34;;;;;;;14.43;7.43;;;22.00;99.90;;;;;;7338820;32;20194;-61
2022/06/19 00:20:37;;;;;;;14.10;7.03;;;21.90;99.90;;;;;;7340419;32;20131;-61
2022/06/19 00:24:39;;;;;;;12.70;6.45;;;21.90;99.90;;;;;;7346932;32;20256;-61
2022/06/19 00:28:41;;;;;;;17.05;7.15;;;21.80;99.90;;;;;;7344180;32;20115;-61
2022/06/19 00:32:43;;;;;;;10.88;6.25;;;21.60;99.90;;;;;;7342201;32;20228;-61
2022/06/19 00:36:49;;;;;;;12.00;7.07;;;21.70;99.90;;;;;;7342353;32;20205;-61
2022/06/19 00:40:53;;;;;;;15.65;7.50;;;21.50;99.90;;;;;;7346686;32;20133;-61
2022/06/19 00:44:55;;;;;;;13.77;6.57;;;21.50;99.90;;;;;;7343871;32;20125;-61
2022/06/19 00:48:57;;;;;;;13.90;7.00;;;21.50;99.90;;;;;;7343972;32;20173;-61
2022/06/19 00:53:00;;;;;;;16.55;7.20;;;21.30;99.90;;;;;;7338541;32;20340;-61
2022/06/19 00:57:02;;;;;;;8.80;6.97;;;21.20;99.90;;;;;;7348015;32;20144;-61
2022/06/19 01:01:13;;;;;;;12.27;6.68;;;21.10;99.90;;;;;;7338429;32;20201;-62
2022/06/19 01:05:16;;;;;;;11.95;6.57;;;21.10;99.90;;;;;;7341513;32;20156;-62
2022/06/19 01:09:18;;;;;;;13.52;7.32;;;21.10;99.90;;;;;;7344021;32;20115;-62
2022/06/19 01:13:25;;;;;;;14.77;6.78;;;21.10;99.90;;;;;;7338540;32;20111;-62
2022/06/19 01:17:30;;;;;;;12.98;7.00;;;21.00;99.90;;;;;;7344719;32;20111;-62
2022/06/19 01:21:50;;;;;;;11.63;6.82;;;20.90;99.90;;;;;;7347057;32;20129;-62
2022/06/19 01:25:52;;;;;;;13.88;6.85;;;20.90;99.90;;;;;;7347845;32;20115;-62
2022/06/19 01:29:54;;;;;;;15.27;6.70;;;20.70;99.90;;;;;;7343764;32;20217;-62
2022/06/19 01:34:26;;;;;;;9.73;6.25;;;20.70;99.90;;;;;;7336089;32;20111;-63
2022/06/19 01:38:26;;;;;;;14.80;6.72;;;20.70;99.90;;;;;;7340630;32;20733;-63
2022/06/19 01:42:30;;;;;;;13.05;6.10;;;20.60;99.90;;;;;;7318875;32;20255;-62
2022/06/19 01:46:32;;;;;;;13.85;7.50;;;20.50;99.90;;;;;;7343529;32;20219;-62
2022/06/19 01:50:34;;;;;;;14.18;7.30;;;20.40;99.90;;;;;;7342546;32;21920;-62
2022/06/19 01:54:50;;;;;;;12.93;6.50;;;20.40;99.90;;;;;;7342131;32;20216;-62
2022/06/19 01:58:56;;;;;;;12.37;6.62;;;20.40;99.90;;;;;;7339127;32;20616;-61
2022/06/19 02:03:08;;;;;;;9.63;6.43;;;20.40;99.90;;;;;;7338345;32;20273;-62
2022/06/19 02:07:14;;;;;;;12.32;7.07;;;20.40;99.90;;;;;;7346179;32;20458;-61
2022/06/19 02:11:17;;;;;;;8.85;5.80;;;20.30;99.90;;;;;;7321933;32;20107;-61
2022/06/19 02:15:19;;;;;;;12.77;6.28;;;20.30;99.90;;;;;;7337360;32;20115;-61
2022/06/19 02:19:21;;;;;;;18.10;6.97;;;20.30;99.90;;;;;;7346004;32;20207;-62
2022/06/19 02:23:33;;;;;;;13.43;6.55;;;20.20;99.90;;;;;;7344894;32;20512;-61
2022/06/19 02:27:37;;;;;;;11.57;6.28;;;20.10;99.90;;;;;;7345003;32;20519;-61
2022/06/19 02:31:41;;;;;;;14.23;7.12;;;20.10;99.90;;;;;;7344033;32;20249;-62
2022/06/19 02:35:43;;;;;;;10.70;6.57;;;20.10;99.90;;;;;;7339375;32;20143;-61
2022/06/19 02:40:00;;;;;;;11.50;6.35;;;20.10;99.90;;;;;;7327468;32;20139;-63
2022/06/19 02:44:01;;;;;;;10.67;5.63;;;20.00;99.90;;;;;;7342061;32;20133;-61
2022/06/19 02:48:03;;;;;;;9.45;5.97;;;20.10;99.90;;;;;;7341458;32;20129;-61
2022/06/19 02:52:08;;;;;;;9.27;5.70;;;20.00;99.90;;;;;;7341645;32;20152;-62
2022/06/19 02:56:09;;;;;;;7.28;4.53;;;20.00;99.90;;;;;;7340859;32;20204;-61
2022/06/19 03:00:19;;;;;;;6.43;4.15;;;19.90;99.90;;;;;;7335461;32;20111;-62
2022/06/19 03:04:24;;;;;;;8.68;4.20;;;19.80;99.90;;;;;;7336273;32;20179;-61
2022/06/19 03:08:26;;;;;;;5.53;3.67;;;19.50;99.90;;;;;;7337575;32;20145;-62
2022/06/19 03:12:28;;;;;;;5.30;3.55;;;19.60;99.90;;;;;;7341829;32;20196;-62
2022/06/19 03:16:29;;;;;;;6.37;3.08;;;19.50;99.90;;;;;;7343545;32;20180;-61
2022/06/19 03:20:31;;;;;;;7.95;3.05;;;19.40;99.90;;;;;;7326923;32;20427;-62
2022/06/19 03:24:33;;;;;;;7.05;3.22;;;19.30;99.90;;;;;;7340860;32;20126;-61
2022/06/19 03:28:35;;;;;;;8.30;3.28;;;19.20;99.90;;;;;;7325132;32;20222;-64
2022/06/19 03:32:36;;;;;;;7.62;3.05;;;19.10;99.90;;;;;;7339861;32;20111;-61
2022/06/19 03:36:38;;;;;;;8.10;3.05;;;19.10;99.90;;;;;;7337847;32;20119;-62
2022/06/19 03:40:40;;;;;;;5.60;2.70;;;19.10;99.90;;;;;;7339080;32;20179;-61
2022/06/19 03:44:42;;;;;;;5.95;2.37;;;19.00;99.90;;;;;;7324288;32;20137;-62
2022/06/19 03:48:47;;;;;;;6.87;2.45;;;18.80;99.90;;;;;;7336549;32;20219;-62
2022/06/19 03:52:49;;;;;;;8.02;2.30;;;18.70;99.90;;;;;;7339614;32;20315;-62
2022/06/19 03:56:51;;;;;;;7.40;2.33;;;18.40;99.90;;;;;;7338373;32;20116;-61
2022/06/19 04:00:53;;;;;;;5.70;2.50;;;18.30;99.90;;;;;;7334282;32;20234;-62
2022/06/19 04:04:54;;;;;;;6.53;1.73;;;18.10;99.90;;;;;;7344769;32;20205;-61
2022/06/19 04:08:58;;;;;;;6.43;1.58;;;18.00;99.90;;;;;;7338933;32;20142;-61
2022/06/19 04:12:59;;;;;;;8.55;1.75;;;17.80;99.90;;;;;;7337118;32;20804;-62
2022/06/19 04:17:01;;;;;;;7.32;1.50;;;17.60;99.90;;;;;;7339796;32;20202;-61
2022/06/19 04:21:03;;;;;;;6.62;1.60;;;17.50;99.90;;;;;;7323934;32;20130;-62
2022/06/19 04:25:13;;;;;;;9.07;1.87;;;17.40;99.90;;;;;;7340875;32;20312;-62
2022/06/19 04:29:16;;;;;;;13.13;1.80;;;17.30;99.90;;;;;;7337590;32;20468;-62
2022/06/19 04:33:20;;;;;;;10.07;2.05;;;17.20;99.90;;;;;;7343464;32;20242;-62
2022/06/19 04:37:22;;;;;;;13.07;1.80;;;17.10;99.90;;;;;;7344981;32;20401;-61
2022/06/19 04:41:31;;;;;;;13.07;2.70;;;16.90;99.90;;;;;;7343107;32;20237;-61
2022/06/19 04:45:33;;;;;;;8.30;2.25;;;17.00;99.90;;;;;;7343265;32;20227;-61
2022/06/19 04:49:35;;;;;;;11.07;1.73;;;16.80;99.90;;;;;;7351240;32;20311;-61
2022/06/19 04:53:39;;;;;;;9.35;1.90;;;16.80;99.90;;;;;;7341510;32;20540;-61
2022/06/19 04:57:41;;;;;;;8.98;1.90;;;16.80;99.90;;;;;;7344403;32;20228;-62
2022/06/19 05:01:44;;;;;;;10.57;2.10;;;16.90;99.90;;;;;;7342881;32;20183;-61
2022/06/19 05:05:46;;;;;;;10.35;2.37;;;17.10;99.90;;;;;;7346615;32;20733;-61
2022/06/19 05:09:48;;;;;;;8.68;1.83;;;17.10;99.90;;;;;;7329178;32;21108;-62
2022/06/19 05:13:50;;;;;;;13.02;2.10;;;17.10;99.90;;;;;;7345009;32;20478;-62
2022/06/19 05:17:52;;;;;;;16.25;2.75;;;17.20;99.90;;;;;;7347381;32;20201;-62
2022/06/19 05:21:53;;;;;;;12.05;2.70;;;17.30;99.90;;;;;;7341702;32;20130;-61
2022/06/19 05:26:01;;;;;;;12.50;2.47;;;17.30;99.90;;;;;;7341423;32;20206;-62
2022/06/19 05:30:05;;;;;;;12.35;2.65;;;17.70;99.90;;;;;;7345201;32;20111;-61
2022/06/19 05:34:07;;;;;;;15.55;2.62;;;18.00;99.90;;;;;;7345774;32;20148;-61
2022/06/19 05:38:16;;;;;;;13.70;2.75;;;18.20;99.90;;;;;;7340967;32;20213;-60
2022/06/19 05:42:18;;;;;;;13.43;2.20;;;18.10;99.90;;;;;;7328373;32;20335;-61
2022/06/19 05:46:20;;;;;;;8.07;1.92;;;18.00;99.90;;;;;;7341254;32;20499;-61
2022/06/19 05:50:22;;;;;;;12.05;2.08;;;18.10;99.90;;;;;;7327275;32;20120;-60
2022/06/19 05:54:24;;;;;;;12.68;2.62;;;17.60;99.90;;;;;;7345531;32;20214;-61
2022/06/19 05:58:26;;;;;;;12.30;2.33;;;17.40;99.90;;;;;;7341296;32;20812;-61
2022/06/19 06:02:27;;;;;;;13.25;2.60;;;17.80;99.90;;;;;;7344465;32;20139;-60
2022/06/19 06:06:31;;;;;;;11.80;2.40;;;17.80;99.90;;;;;;7338473;32;20175;-60
2022/06/19 06:10:33;;;;;;;12.52;2.47;;;17.70;99.90;;;;;;7339340;32;20606;-59
2022/06/19 06:14:34;;;;;;;11.10;2.50;;;17.30;99.90;;;;;;7338034;32;20879;-60
2022/06/19 06:18:36;;;;;;;17.90;2.75;;;17.40;99.90;;;;;;7342698;32;20249;-61
2022/06/19 06:22:38;;;;;;;13.75;2.40;;;18.30;99.90;;;;;;7339527;32;20238;-61
2022/06/19 06:26:40;;;;;;;19.30;3.50;;;18.30;99.90;;;;;;7330489;32;20268;-61
2022/06/19 06:30:41;;;;;;;12.98;2.30;;;18.50;99.90;;;;;;7343121;32;20111;-61
2022/06/19 06:34:43;;;;;;;9.43;2.10;;;19.10;99.90;;;;;;7338439;32;20123;-65
2022/06/19 06:38:45;;;;;;;12.65;2.15;;;18.50;99.90;;;;;;7344940;32;20170;-66
2022/06/19 06:42:48;;;;;;;11.32;2.35;;;19.00;99.90;;;;;;7344256;32;20294;-65
2022/06/19 06:46:50;;;;;;;14.87;2.28;;;20.00;99.90;;;;;;7338498;32;20725;-65
2022/06/19 06:50:51;;;;;;;10.48;1.70;;;20.50;99.90;;;;;;7345846;32;20118;-62
2022/06/19 06:54:53;;;;;;;14.45;2.95;;;20.90;99.90;;;;;;7340345;32;20194;-63
2022/06/19 06:58:55;;;;;;;14.30;2.30;;;20.80;99.90;;;;;;7340397;32;20180;-63
2022/06/19 07:03:04;;;;;;;11.40;2.12;;;20.60;99.90;;;;;;7340619;32;20542;-64
2022/06/19 07:07:06;;;;;;;14.02;2.83;;;20.40;99.90;;;;;;7347196;32;20187;-61
2022/06/19 07:11:16;;;;;;;10.68;2.40;;;20.10;99.90;;;;;;7340076;32;20142;-64
2022/06/19 07:15:18;;;;;;;11.90;2.85;;;20.10;99.90;;;;;;7331645;32;20111;-66
2022/06/19 07:19:20;;;;;;;13.30;2.70;;;19.90;99.90;;;;;;7331843;32;20127;-65
2022/06/19 07:23:21;;;;;;;13.45;2.62;;;19.80;99.90;;;;;;7340815;32;20119;-64
2022/06/19 07:27:24;;;;;;;18.00;3.10;;;19.80;99.90;;;;;;7333603;32;20130;-64
2022/06/19 07:31:26;;;;;;;13.40;2.08;;;20.10;99.90;;;;;;7337318;32;20499;-65
2022/06/19 07:35:27;;;;;;;11.65;2.40;;;20.00;99.90;;;;;;7340546;32;21249;-63
2022/06/19 07:39:29;;;;;;;17.67;3.83;;;19.90;99.90;;;;;;7335274;32;20487;-64
2022/06/19 07:43:31;;;;;;;16.87;3.40;;;19.40;99.90;;;;;;7341486;32;20120;-63
2022/06/19 07:51:53;;;;;;;12.75;3.17;;;19.50;99.90;;;;;;7348462;32;20534;-63
2022/06/19 07:55:54;;;;;;;12.43;2.80;;;19.70;99.90;;;;;;7329961;32;20733;-64
2022/06/19 07:59:56;;;;;;;15.70;3.85;;;19.70;99.90;;;;;;7335986;32;20276;-63
2022/06/19 08:03:58;;;;;;;16.60;3.50;;;19.60;99.90;;;;;;7342581;32;20767;-64
2022/06/19 08:08:05;;;;;;;14.52;3.10;;;19.50;99.90;;;;;;7343944;32;20135;-63
2022/06/19 08:12:07;;;;;;;12.48;2.70;;;19.60;99.90;;;;;;7343760;32;20260;-64
2022/06/19 08:16:10;;;;;;;12.13;2.83;;;19.70;99.90;;;;;;7341036;32;20138;-63
2022/06/19 08:20:12;;;;;;;15.00;3.60;;;19.70;99.90;;;;;;7346009;32;20246;-64
2022/06/19 08:24:14;;;;;;;15.50;3.72;;;19.90;99.90;;;;;;7347756;32;20138;-64
2022/06/19 08:28:22;;;;;;;16.27;3.58;;;20.30;99.90;;;;;;7341095;32;20106;-65
2022/06/19 08:32:24;;;;;;;10.18;2.62;;;20.40;99.90;;;;;;7347043;32;20495;-64
2022/06/19 08:36:27;;;;;;;12.95;4.07;;;20.60;99.90;;;;;;7344233;32;20775;-69
2022/06/19 08:40:47;;;;;;;14.95;3.25;;;20.80;99.90;;;;;;7345656;32;20130;-68
2022/06/19 08:45:00;;;;;;;14.32;2.50;;;21.20;99.90;;;;;;7346660;32;20107;-68
2022/06/19 08:49:10;;;;;;;12.18;2.58;;;21.20;99.90;;;;;;7341243;32;21191;-67
2022/06/19 08:53:20;;;;;;;13.95;4.40;;;21.20;99.90;;;;;;7344390;32;20126;-67
2022/06/19 08:57:33;;;;;;;8.23;2.17;;;21.50;99.90;;;;;;7344159;32;20100;-67
2022/06/19 09:01:43;;;;;;;14.50;2.85;;;21.80;99.90;;;;;;7340508;32;20522;-57
2022/06/19 09:06:03;;;;;;;10.02;2.45;;;22.20;99.90;;;;;;7341356;32;20139;-58
2022/06/19 09:10:18;;;;;;;13.07;2.55;;;22.30;99.90;;;;;;7342800;32;20198;-57
2022/06/19 09:14:49;;;;;;;12.20;2.50;;;22.20;99.90;;;;;;7344000;32;20170;-57
2022/06/19 09:19:29;;;;;;;16.33;2.47;;;22.20;99.90;;;;;;7346506;32;20163;-57
2022/06/19 09:23:55;;;;;;;13.50;2.47;;;21.80;99.90;;;;;;7299281;32;20115;-57
2022/06/19 09:28:16;;;;;;;12.93;2.80;;;21.50;99.90;;;;;;7341818;32;20671;-57
2022/06/19 09:32:22;;;;;;;12.95;2.47;;;21.40;99.90;;;;;;7342503;32;22459;-57
2022/06/19 09:36:43;;;;;;;12.13;2.40;;;21.40;99.90;;;;;;7344610;32;20190;-57
2022/06/19 09:40:56;;;;;;;12.60;3.12;;;21.20;99.90;;;;;;7343081;32;20107;-57
2022/06/19 09:45:04;;;;;;;12.80;3.33;;;20.80;99.90;;;;;;7339768;32;20186;-58
2022/06/19 09:49:27;;;;;;;17.87;3.85;;;20.30;99.90;;;;;;7343945;32;20111;-59
2022/06/19 09:53:36;;;;;;;13.88;3.37;;;19.70;99.90;;;;;;7339822;32;20330;-57
2022/06/19 09:58:15;;;;;;;12.60;2.95;;;19.70;99.90;;;;;;7336171;32;20100;-58
2022/06/19 10:02:30;;;;;;;17.42;3.87;;;19.70;99.90;;;;;;7343305;32;20203;-57
2022/06/19 10:06:41;;;;;;;18.95;3.97;;;19.70;99.90;;;;;;7343640;32;20403;-57
2022/06/19 10:11:01;;;;;;;14.43;3.95;;;19.90;99.90;;;;;;7346011;32;20160;-57
2022/06/19 10:15:09;;;;;;;12.68;3.05;;;19.90;99.90;;;;;;7340964;32;20662;-58
2022/06/19 10:19:17;;;;;;;20.52;4.53;;;20.00;99.90;;;;;;7338421;32;20129;-58
2022/06/19 10:23:39;;;;;;;18.37;4.07;;;19.90;99.90;;;;;;7340058;32;20559;-57
2022/06/19 10:28:02;;;;;;;19.50;3.75;;;19.80;99.90;;;;;;7342192;32;20111;-57
2022/06/19 10:32:13;;;;;;;16.40;2.97;;;19.70;99.90;;;;;;7345084;32;20826;-57
2022/06/19 10:36:27;;;;;;;17.48;3.20;;;20.00;99.90;;;;;;7335658;32;20111;-57
2022/06/19 10:40:38;;;;;;;9.90;2.58;;;20.10;99.90;;;;;;7338872;32;20103;-58
2022/06/19 10:44:54;;;;;;;12.18;2.62;;;20.60;99.90;;;;;;7338726;32;20119;-57
2022/06/19 10:49:37;;;;;;;12.37;2.83;;;21.10;99.90;;;;;;7341877;32;20108;-57
2022/06/19 10:53:51;;;;;;;19.08;2.65;;;21.40;99.90;;;;;;7327499;32;20542;-57
2022/06/19 10:58:14;;;;;;;11.50;2.50;;;21.90;99.90;;;;;;7335291;32;20116;-68
2022/06/19 11:07:11;;;;;;;11.12;2.37;;;22.80;99.90;;;;;;7294133;32;20381;-67
2022/06/19 11:11:17;;;;;;;10.63;2.42;;;23.20;99.90;;;;;;7340602;32;20118;-65
2022/06/19 11:15:26;;;;;;;11.40;2.70;;;23.80;99.90;;;;;;7338507;32;20111;-65
2022/06/19 11:19:37;;;;;;;12.93;2.72;;;23.70;99.90;;;;;;7340549;32;20159;-65
2022/06/19 11:23:56;;;;;;;11.93;2.87;;;23.60;99.90;;;;;;7321157;32;20259;-65
2022/06/19 11:28:03;;;;;;;19.92;3.50;;;22.80;99.90;;;;;;7340472;32;20218;-65
2022/06/19 11:32:13;;;;;;;19.67;5.85;;;22.60;99.90;;;;;;7341332;32;20163;-66
2022/06/19 11:36:39;;;;;;;11.30;2.90;;;22.60;99.90;;;;;;7343090;32;20134;-65
2022/06/19 11:40:48;;;;;;;12.25;3.30;;;22.60;99.90;;;;;;7344614;32;20134;-65
2022/06/19 11:45:19;;;;;;;12.10;2.80;;;22.50;99.90;;;;;;7348697;32;20130;-64
2022/06/19 11:49:27;;;;;;;9.80;2.65;;;22.70;99.90;;;;;;7344768;32;20268;-64
2022/06/19 11:53:41;;;;;;;11.35;3.20;;;23.00;99.90;;;;;;7341310;32;20213;-64
2022/06/19 11:57:50;;;;;;;10.57;2.60;;;22.80;99.90;;;;;;7344089;32;20107;-66
2022/06/19 12:01:52;;;;;;;15.13;2.40;;;22.90;99.90;;;;;;7343649;32;20126;-66
2022/06/19 12:06:05;;;;;;;11.32;2.45;;;23.10;99.90;;;;;;7342400;32;20102;-66
2022/06/19 12:10:27;;;;;;;14.00;2.85;;;23.20;99.90;;;;;;7347241;32;20625;-60
2022/06/19 12:14:32;;;;;;;12.93;2.75;;;22.70;99.90;;;;;;7344717;32;20633;-59
2022/06/19 12:18:34;;;;;;;8.57;2.12;;;22.50;99.90;;;;;;7345212;32;20111;-58
2022/06/19 12:22:56;;;;;;;13.75;3.15;;;22.60;99.90;;;;;;7345188;32;20103;-59
2022/06/19 12:27:00;;;;;;;14.38;2.50;;;22.80;99.90;;;;;;7342601;32;20166;-58
2022/06/19 12:31:19;;;;;;;10.20;2.92;;;22.90;99.90;;;;;;7348329;32;20557;-59
2022/06/19 12:35:33;;;;;;;11.48;2.80;;;23.40;99.90;;;;;;7344722;32;20193;-59
2022/06/19 12:39:35;;;;;;;8.98;2.90;;;23.50;99.90;;;;;;7344036;32;20153;-59
2022/06/19 12:43:49;;;;;;;17.62;3.85;;;23.60;99.90;;;;;;7344231;32;20197;-59
2022/06/19 12:48:18;;;;;;;15.30;4.03;;;23.30;99.90;;;;;;7347524;32;20135;-63
2022/06/19 12:52:31;;;;;;;11.50;3.20;;;23.50;99.90;;;;;;7345596;32;20149;-64
2022/06/19 12:57:08;;;;;;;10.55;3.03;;;23.30;99.90;;;;;;7338750;32;20241;-65
2022/06/19 13:01:20;;;;;;;17.80;3.57;;;23.50;99.90;;;;;;7344627;32;20095;-64
2022/06/19 13:05:50;;;;;;;12.57;2.62;;;23.30;99.90;;;;;;7334410;32;20209;-65
2022/06/19 13:10:21;;;;;;;14.63;3.37;;;23.20;99.90;;;;;;7347650;32;20167;-65
2022/06/19 13:14:29;;;;;;;14.45;3.20;;;23.10;99.90;;;;;;7330995;32;20409;-65
2022/06/19 13:19:00;;;;;;;12.85;3.10;;;23.30;99.90;;;;;;7333620;32;20548;-64
2022/06/19 13:23:29;;;;;;;16.33;3.60;;;23.20;99.90;;;;;;7343858;32;20110;-65
2022/06/19 13:27:32;;;;;;;15.93;3.72;;;23.50;99.90;;;;;;7341937;32;20529;-65
2022/06/19 13:31:39;;;;;;;13.80;3.20;;;23.60;99.90;;;;;;7339338;32;20120;-64
2022/06/19 13:36:19;;;;;;;14.00;3.50;;;23.80;99.90;;;;;;7344872;32;20112;-65
2022/06/19 13:40:31;;;;;;;13.62;3.70;;;23.70;99.90;;;;;;7341073;32;20139;-65
2022/06/19 13:45:10;;;;;;;16.30;4.28;;;23.80;99.90;;;;;;7347565;32;20292;-65
2022/06/19 13:49:33;;;;;;;10.35;3.37;;;23.60;99.90;;;;;;7346867;32;20227;-65
2022/06/19 13:53:58;;;;;;;9.73;2.33;;;23.80;99.90;;;;;;7341822;32;20134;-64
2022/06/19 13:58:05;;;;;;;11.65;2.85;;;24.00;99.90;;;;;;7345733;32;20111;-65
2022/06/19 14:02:09;;;;;;;12.68;3.15;;;23.80;99.90;;;;;;7341124;32;20317;-65
2022/06/19 14:06:13;;;;;;;11.02;3.30;;;23.50;99.90;;;;;;7337128;32;20137;-65
2022/06/19 14:10:34;;;;;;;14.27;3.33;;;23.20;99.90;;;;;;7344872;32;20110;-64
2022/06/19 14:14:45;;;;;;;11.70;3.30;;;23.20;99.90;;;;;;7344090;32;20536;-65
2022/06/19 14:18:54;;;;;;;14.02;3.20;;;23.10;99.90;;;;;;7338001;32;20470;-65
2022/06/19 14:23:33;;;;;;;12.75;3.08;;;23.00;99.90;;;;;;7343077;32;20226;-65
2022/06/19 14:28:01;;;;;;;10.95;2.60;;;22.80;99.90;;;;;;7316438;32;20230;-65
2022/06/19 14:32:15;;;;;;;10.75;2.62;;;22.90;99.90;;;;;;7330714;32;20276;-65
2022/06/19 14:36:17;;;;;;;11.98;2.97;;;22.60;99.90;;;;;;7344993;32;20131;-66
2022/06/19 14:40:18;;;;;;;12.25;2.85;;;22.80;99.90;;;;;;7340080;32;20738;-65
2022/06/19 14:44:21;;;;;;;11.15;2.40;;;23.00;99.90;;;;;;7334799;32;20229;-62
2022/06/19 14:48:41;;;;;;;10.13;2.55;;;23.30;99.90;;;;;;7341139;32;20170;-64
2022/06/19 14:53:14;;;;;;;9.18;2.47;;;23.40;99.90;;;;;;7342325;32;20463;-65
2022/06/19 14:57:44;;;;;;;15.10;3.87;;;23.60;99.90;;;;;;7336286;32;20237;-67
2022/06/19 15:01:50;;;;;;;10.05;3.35;;;23.10;99.90;;;;;;7342090;32;20526;-67
2022/06/19 15:06:04;;;;;;;13.95;3.37;;;23.20;99.90;;;;;;7338063;32;20141;-66
2022/06/19 15:10:28;;;;;;;13.43;3.28;;;23.20;99.90;;;;;;7341999;32;20103;-67
2022/06/19 15:14:32;;;;;;;10.32;2.90;;;23.10;99.90;;;;;;7344942;32;20134;-66
2022/06/19 15:18:35;;;;;;;12.45;3.78;;;23.20;99.90;;;;;;7338147;32;20103;-65
2022/06/19 15:22:39;;;;;;;12.10;2.53;;;23.10;99.90;;;;;;7344849;32;20166;-66
2022/06/19 15:26:42;;;;;;;10.23;2.00;;;22.80;99.90;;;;;;7343838;32;20186;-66
2022/06/19 15:30:44;;;;;;;12.45;2.80;;;22.50;99.90;;;;;;7339185;32;20260;-60
2022/06/19 15:34:51;;;;;;;10.88;2.35;;;22.10;99.90;;;;;;7333294;32;20133;-60
2022/06/19 15:39:09;;;;;;;11.80;2.45;;;22.00;99.90;;;;;;7341431;32;20765;-61
2022/06/19 15:43:17;;;;;;;12.52;1.70;;;21.70;99.90;;;;;;7346370;32;20338;-61
2022/06/19 15:47:19;;;;;;;8.82;1.80;;;21.60;99.90;;;;;;7333074;32;20243;-60
2022/06/19 15:51:34;;;;;;;7.87;1.55;;;21.40;99.90;;;;;;7334460;32;20305;-59
2022/06/19 15:55:40;;;;;;;4.72;1.30;;;21.30;99.90;;;;;;7341721;32;20149;-58
2022/06/19 15:59:42;;;;;;;5.43;1.50;;;21.20;99.90;;;;;;7340278;32;20233;-57
2022/06/19 16:03:50;;;;;;;5.12;1.50;;;21.30;99.90;;;;;;7334436;32;20127;-57
2022/06/19 16:07:52;;;;;;;6.37;1.25;;;21.70;99.90;;;;;;7337176;32;20272;-58
2022/06/19 16:12:18;;;;;;;7.47;1.37;;;21.70;99.90;;;;;;7341467;32;20130;-58
2022/06/19 16:16:23;;;;;;;6.97;1.25;;;21.60;99.90;;;;;;7343407;32;20107;-58
2022/06/19 16:20:30;;;;;;;11.35;3.75;;;21.40;99.90;;;;;;7342633;32;20730;-58
2022/06/19 16:24:53;;;;;;;6.20;1.37;;;21.20;99.90;;;;;;7342845;32;20208;-58
2022/06/19 16:28:58;;;;;;;6.05;1.45;;;21.00;99.90;;;;;;7344319;32;20138;-57
2022/06/19 16:33:01;;;;;;;4.25;1.35;;;21.00;99.90;;;;;;7342500;32;20119;-58
2022/06/19 16:45:50;;;;;;;5.90;1.40;;;20.80;99.90;;;;;;7342264;32;20115;-57
2022/06/19 16:50:02;;;;;;;6.10;1.45;;;21.00;99.90;;;;;;7344952;32;20158;-57
2022/06/19 16:54:03;;;;;;;6.20;1.80;;;21.00;99.90;;;;;;7349243;32;20225;-57
2022/06/19 16:58:07;;;;;;;6.45;1.27;;;20.60;99.90;;;;;;7348013;32;20112;-58
2022/06/19 17:02:16;;;;;;;5.95;1.50;;;20.60;99.90;;;;;;7342190;32;20120;-58
2022/06/19 17:06:27;;;;;;;5.93;1.58;;;20.60;99.90;;;;;;7340921;32;20209;-57
2022/06/19 17:10:29;;;;;;;10.07;1.83;;;20.70;99.90;;;;;;7343893;32;20614;-64
2022/06/19 17:14:52;;;;;;;6.47;1.67;;;20.90;99.90;;;;;;7346724;32;20297;-64
2022/06/19 17:18:55;;;;;;;8.35;2.10;;;20.80;99.90;;;;;;7347154;32;20103;-65
2022/06/19 17:23:04;;;;;;;7.50;2.17;;;20.70;99.90;;;;;;7343209;32;20232;-67
2022/06/19 17:27:11;;;;;;;7.57;1.77;;;20.70;99.90;;;;;;7347936;32;20165;-67
2022/06/19 17:31:20;;;;;;;9.38;1.80;;;20.70;99.90;;;;;;7347803;32;20136;-66
2022/06/19 17:35:30;;;;;;;6.60;1.80;;;20.70;99.90;;;;;;7339428;32;20726;-67
2022/06/19 17:39:37;;;;;;;8.57;1.95;;;20.30;99.90;;;;;;7340055;32;20349;-66
2022/06/19 17:43:45;;;;;;;8.38;1.70;;;20.20;99.90;;;;;;7343876;32;20281;-67
2022/06/19 17:47:47;;;;;;;5.85;1.95;;;20.10;99.90;;;;;;7341065;32;20107;-66
2022/06/19 17:51:48;;;;;;;5.62;1.98;;;19.90;99.90;;;;;;7339309;32;21381;-64
2022/06/19 17:55:50;;;;;;;11.65;2.87;;;19.80;99.90;;;;;;7341943;32;20139;-66
2022/06/19 18:00:23;;;;;;;9.57;2.30;;;19.70;99.90;;;;;;7348996;32;20186;-64
2022/06/19 18:04:32;;;;;;;9.27;2.15;;;19.50;99.90;;;;;;7338152;32;20236;-65
2022/06/19 18:08:41;;;;;;;7.15;1.87;;;19.40;99.90;;;;;;7341529;32;20230;-65
2022/06/19 18:12:44;;;;;;;7.82;1.85;;;19.40;99.90;;;;;;7343870;32;20558;-64
2022/06/19 18:21:14;;;;;;;8.82;1.55;;;19.20;99.90;;;;;;7336160;32;20215;-68
2022/06/19 18:25:16;;;;;;;10.90;1.65;;;19.10;99.90;;;;;;7332670;32;20221;-67
2022/06/19 18:29:39;;;;;;;7.97;1.73;;;19.20;99.90;;;;;;7343795;32;20258;-68
2022/06/19 18:33:41;;;;;;;7.32;1.40;;;18.90;99.90;;;;;;7343471;32;20147;-66
2022/06/19 18:37:46;;;;;;;10.23;1.95;;;18.90;99.90;;;;;;7339251;32;20110;-64
2022/06/19 18:42:17;;;;;;;13.10;1.77;;;18.80;99.90;;;;;;7338800;32;20282;-66
2022/06/19 18:46:19;;;;;;;4.87;1.20;;;18.80;99.90;;;;;;7338943;32;20202;-68
2022/06/19 18:50:44;;;;;;;7.55;1.58;;;18.80;99.90;;;;;;7342706;32;20215;-67
2022/06/19 18:54:48;;;;;;;8.60;1.42;;;18.70;99.90;;;;;;7336826;32;20137;-68
2022/06/19 18:58:49;;;;;;;7.03;1.48;;;18.50;99.90;;;;;;7343671;32;20362;-69
2022/06/19 19:02:51;;;;;;;6.82;1.70;;;18.20;99.90;;;;;;7342477;32;20611;-69
2022/06/19 19:06:54;;;;;;;7.28;1.65;;;17.90;99.90;;;;;;7347819;32;20141;-68
2022/06/19 19:10:58;;;;;;;7.20;1.50;;;17.70;99.90;;;;;;7342034;32;20450;-67
2022/06/19 19:15:06;;;;;;;10.73;2.05;;;17.80;99.90;;;;;;7335251;32;20665;-69
2022/06/19 19:19:25;;;;;;;9.80;1.92;;;17.80;99.90;;;;;;7347061;32;20194;-70
2022/06/19 19:23:27;;;;;;;12.77;3.45;;;17.70;99.90;;;;;;7338877;32;20576;-70
2022/06/19 19:27:31;;;;;;;8.60;2.30;;;17.60;99.90;;;;;;7337917;32;20202;-69
2022/06/19 19:31:35;;;;;;;10.40;2.67;;;17.40;99.90;;;;;;7340838;32;20142;-70
2022/06/19 19:35:43;;;;;;;10.10;2.72;;;17.20;99.90;;;;;;7339453;32;20103;-69
2022/06/19 19:39:45;;;;;;;12.10;2.80;;;17.00;99.90;;;;;;7341451;32;20166;-68
2022/06/19 19:43:48;;;;;;;8.90;2.83;;;16.90;99.90;;;;;;7343363;32;20110;-68
2022/06/19 19:47:50;;;;;;;8.57;3.28;;;16.70;99.90;;;;;;7343346;32;20245;-67
2022/06/19 19:51:54;;;;;;;9.88;3.87;;;16.70;99.90;;;;;;7343131;32;20138;-69
2022/06/19 19:55:56;;;;;;;10.65;4.00;;;16.60;99.90;;;;;;7338454;32;20186;-69
2022/06/19 19:59:58;;;;;;;8.65;4.25;;;16.60;99.90;;;;;;7348130;32;20225;-69
2022/06/19 20:04:00;;;;;;;15.25;4.28;;;16.50;99.90;;;;;;7344528;32;20130;-65
2022/06/19 20:12:24;;;;;;;10.38;4.12;;;16.30;99.90;;;;;;7345988;32;20684;-64
2022/06/19 20:16:27;;;;;;;10.10;4.22;;;16.20;99.90;;;;;;7348166;32;20157;-64
2022/06/19 20:20:34;;;;;;;8.27;4.18;;;16.10;99.90;;;;;;7351002;32;20288;-65
2022/06/19 20:24:45;;;;;;;9.43;4.30;;;16.20;99.90;;;;;;7346580;32;20514;-65
2022/06/19 20:28:46;;;;;;;13.35;5.30;;;16.00;99.90;;;;;;7345942;32;20191;-66
2022/06/19 20:32:54;;;;;;;10.60;5.50;;;16.00;99.90;;;;;;7338691;32;20182;-64
2022/06/19 20:36:56;;;;;;;10.82;5.35;;;15.80;99.90;;;;;;7345994;32;20111;-65
2022/06/19 20:42:21;;;;;;;13.68;5.22;;;15.70;99.90;;;;;;7341644;32;20130;-62
2022/06/19 20:45:23;;;;;;;14.63;6.03;;;15.80;99.90;;;;;;7351217;32;20361;-62
2022/06/19 20:49:32;;;;;;;7.62;5.03;;;15.60;99.90;;;;;;7340851;32;20400;-63
2022/06/19 20:53:35;;;;;;;17.65;6.03;;;15.60;99.90;;;;;;7345734;32;20135;-63
2022/06/19 20:57:37;;;;;;;10.20;5.55;;;15.60;99.90;;;;;;7344538;32;20103;-63
2022/06/19 21:01:39;;;;;;;12.18;5.95;;;15.50;99.90;;;;;;7341853;32;20264;-63
2022/06/19 21:05:44;;;;;;;12.90;6.18;;;15.40;99.90;;;;;;7345537;32;20115;-64
2022/06/19 21:09:46;;;;;;;10.48;5.90;;;15.30;99.90;;;;;;7344463;32;20177;-63
2022/06/19 21:13:48;;;;;;;14.85;6.20;;;15.20;99.90;;;;;;7338037;32;20199;-63
2022/06/19 21:17:50;;;;;;;13.20;6.47;;;15.10;99.90;;;;;;7342520;32;20391;-62
2022/06/19 21:21:52;;;;;;;11.45;6.75;;;15.10;99.90;;;;;;7340623;32;20111;-62
2022/06/19 21:25:54;;;;;;;10.93;5.62;;;15.10;99.90;;;;;;7342279;32;20153;-62
2022/06/19 21:29:55;;;;;;;13.13;6.20;;;15.10;99.90;;;;;;7353888;32;20186;-62
2022/06/19 21:33:57;;;;;;;11.73;5.03;;;15.10;99.90;;;;;;7338720;32;20336;-61
2022/06/19 21:37:59;;;;;;;11.60;4.82;;;15.10;99.90;;;;;;7337960;32;20277;-62
2022/06/19 21:42:02;;;;;;;8.93;3.67;;;15.10;99.90;;;;;;7343763;32;20127;-62
2022/06/19 21:46:10;;;;;;;7.00;3.47;;;15.10;99.90;;;;;;7339638;32;20137;-61